createdAt,value
2023-05-27T00:04:07.349Z,0.8
2023-05-27T00:10:27.211Z,0.8
2023-05-27T00:16:49.408Z,2.5
2023-05-27T00:23:09.221Z,2.5
2023-05-27T00:29:31.196Z,2.1
2023-05-27T00:35:51.397Z,2.1
2023-05-27T00:42:13.190Z,1.6
2023-05-27T00:48:33.250Z,1.6
2023-05-27T00:54:55.205Z,1
2023-05-27T01:01:15.253Z,1
2023-05-27T01:07:37.130Z,1.9
2023-05-27T01:13:57.257Z,1.9
2023-05-27T01:20:19.257Z,3.5
2023-05-27T01:26:39.218Z,3.5
2023-05-27T01:33:01.341Z,2.4
2023-05-27T01:39:21.165Z,2.4
2023-05-27T01:45:43.335Z,2.5
2023-05-27T01:52:03.214Z,2.5
2023-05-27T01:58:25.297Z,2.8
2023-05-27T02:04:45.222Z,2.8
2023-05-27T02:11:07.252Z,1
2023-05-27T02:17:27.191Z,1
2023-05-27T02:23:49.320Z,3.2
2023-05-27T02:30:09.209Z,3.2
2023-05-27T02:36:31.324Z,2.6
2023-05-27T02:42:51.346Z,2.6
2023-05-27T02:49:13.291Z,2.6
2023-05-27T02:55:33.252Z,2.6
2023-05-27T03:01:55.311Z,2.9
2023-05-27T03:08:15.182Z,2.9
2023-05-27T03:32:01.158Z,6.3
2023-05-27T03:38:22.227Z,6.3
2023-05-27T03:44:42.169Z,6.3
2023-05-27T03:51:04.195Z,2.6
2023-05-27T03:57:24.227Z,2.6
2023-05-27T04:03:46.220Z,5.3
2023-05-27T04:10:06.214Z,5.3
2023-05-27T04:16:28.292Z,1.1
2023-05-27T04:22:48.226Z,1.1
2023-05-27T04:29:10.224Z,4.3
2023-05-27T04:35:30.192Z,4.3
2023-05-27T04:41:52.182Z,1.6
2023-05-27T04:48:12.287Z,1.6
2023-05-27T04:54:34.181Z,2
2023-05-27T05:00:54.487Z,2
2023-05-27T05:07:16.233Z,2.3
2023-05-27T05:13:36.179Z,2.3
2023-05-27T05:19:58.259Z,3.8
2023-05-27T05:26:18.214Z,3.8
2023-05-27T05:32:40.160Z,3.2
2023-05-27T05:39:00.216Z,3.2
2023-05-27T05:45:22.222Z,2.3
2023-05-27T05:51:42.152Z,2.3
2023-05-27T05:58:04.182Z,3.1
2023-05-27T06:04:24.263Z,3.1
2023-05-27T06:10:46.197Z,2.8
2023-05-27T06:17:06.210Z,2.8
2023-05-27T06:23:28.197Z,3.7
2023-05-27T06:29:48.156Z,3.7
2023-05-27T06:36:10.159Z,1.9
2023-05-27T06:42:30.511Z,1.9
2023-05-27T06:48:52.184Z,2
2023-05-27T06:55:12.251Z,2
2023-05-27T07:01:34.204Z,1.4
2023-05-27T07:07:54.155Z,1.4
2023-05-27T07:14:16.192Z,2.3
2023-05-27T07:20:36.152Z,2.3
2023-05-27T07:26:57.197Z,5.9
2023-05-27T07:33:17.140Z,5.9
2023-05-27T07:39:39.159Z,3.6
2023-05-27T07:45:59.154Z,3.6
2023-05-27T07:52:21.127Z,1.1
2023-05-27T07:58:41.196Z,1.1
2023-05-27T08:05:03.126Z,3.9
2023-05-27T08:11:23.141Z,3.9
2023-05-27T08:17:45.321Z,2.3
2023-05-27T08:24:05.132Z,2.3
2023-05-27T08:30:27.171Z,1.9
2023-05-27T08:36:47.156Z,1.9
2023-05-27T08:59:33.067Z,4.1
2023-05-27T09:05:52.190Z,4.1
2023-05-27T09:12:14.156Z,4.3
2023-05-27T09:18:34.190Z,4.3
2023-05-27T09:24:56.120Z,1.6
2023-05-27T09:31:16.158Z,1.6
2023-05-27T09:37:38.167Z,2.6
2023-05-27T09:43:58.115Z,2.6
2023-05-27T09:50:20.172Z,1.1
2023-05-27T09:56:40.128Z,1.1
2023-05-27T10:03:01.183Z,1.4
2023-05-27T10:09:21.154Z,1.4
2023-05-27T10:15:43.138Z,1
2023-05-27T10:22:02.156Z,1
2023-05-27T10:28:24.110Z,1.6
2023-05-27T10:34:43.167Z,1.6
2023-05-27T10:41:05.172Z,1.3
2023-05-27T10:47:25.141Z,1.3
2023-05-27T10:53:48.307Z,2.1
2023-05-27T11:00:06.196Z,2.1
2023-05-27T11:06:28.142Z,3.1
2023-05-27T11:12:48.164Z,3.1
2023-05-27T11:19:10.106Z,2.6
2023-05-27T11:25:29.168Z,2.6
2023-05-27T11:31:51.195Z,2
2023-05-27T11:38:11.123Z,2
2023-05-27T11:44:33.155Z,2.5
2023-05-27T11:50:53.137Z,2.5
2023-05-27T11:57:14.155Z,1.7
2023-05-27T12:03:34.184Z,1.7
2023-05-27T12:09:56.130Z,2
2023-05-27T12:16:15.191Z,2
2023-05-27T12:22:37.104Z,1.2
2023-05-27T12:28:56.196Z,1.2
2023-05-27T12:35:18.126Z,1.3
2023-05-27T12:41:38.105Z,1.3
2023-05-27T12:48:00.229Z,4.9
2023-05-27T12:54:20.095Z,4.9
2023-05-27T13:00:42.156Z,2.8
2023-05-27T13:07:02.158Z,2.8
2023-05-27T13:13:24.104Z,1.3
2023-05-27T13:19:43.137Z,1.3
2023-05-27T13:26:05.121Z,1.7
2023-05-27T13:32:24.170Z,1.7
2023-05-27T13:38:46.375Z,4.9
2023-05-27T13:45:06.153Z,4.9
2023-05-27T13:51:27.159Z,4.9
2023-05-27T13:57:47.117Z,4.9
2023-05-27T14:04:09.170Z,2.4
2023-05-27T14:10:28.179Z,2.4
2023-05-27T14:16:50.109Z,2.5
2023-05-27T14:23:09.179Z,2.5
2023-05-27T14:29:31.149Z,0.8
2023-05-27T14:35:51.280Z,0.8
2023-05-27T14:59:13.177Z,3.2
2023-05-27T15:05:35.163Z,3.2
2023-05-27T15:11:55.188Z,3.2
2023-05-27T15:18:17.134Z,1.4
2023-05-27T15:24:37.120Z,1.4
2023-05-27T15:30:59.224Z,0.9
2023-05-27T15:37:19.123Z,0.9
2023-05-27T15:43:40.158Z,1.3
2023-05-27T15:50:00.172Z,1.3
2023-05-27T15:56:22.157Z,1.9
2023-05-27T16:02:42.207Z,1.9
2023-05-27T16:09:04.106Z,1.2
2023-05-27T16:15:23.202Z,1.2
2023-05-27T16:21:45.116Z,1
2023-05-27T16:28:05.106Z,1
2023-05-27T16:34:26.196Z,1.9
2023-05-27T16:40:46.117Z,1.9
2023-05-27T16:47:07.133Z,0.8
2023-05-27T16:53:27.153Z,0.8
2023-05-27T16:59:49.101Z,0.5
2023-05-27T17:06:08.204Z,0.5
2023-05-27T17:12:31.339Z,1.5
2023-05-27T17:18:50.124Z,1.5
2023-05-27T17:25:12.129Z,1.1
2023-05-27T17:31:32.174Z,1.1
2023-05-27T17:37:53.372Z,1.1
2023-05-27T17:44:13.379Z,1.1
2023-05-27T17:50:35.780Z,0.6
2023-05-27T17:56:56.013Z,0.6
2023-05-27T18:03:17.161Z,2.7
2023-05-27T18:09:36.594Z,2.7
2023-05-27T18:15:58.874Z,1.5
2023-05-27T18:22:18.114Z,1.5
2023-05-27T18:28:40.186Z,1.2
2023-05-27T18:35:00.194Z,1.2
2023-05-27T18:41:22.172Z,1.6
2023-05-27T18:47:42.605Z,1.6
2023-05-27T18:54:05.037Z,1.2
2023-05-27T19:00:24.232Z,1.2
2023-05-27T19:06:46.314Z,0.6
2023-05-27T19:13:06.282Z,0.6
2023-05-27T19:19:28.126Z,1.3
2023-05-27T19:25:48.169Z,1.3
2023-05-27T19:32:10.164Z,1
2023-05-27T19:38:30.635Z,1
2023-05-27T19:44:52.215Z,1.8
2023-05-27T19:51:12.126Z,1.8
2023-05-27T19:57:34.208Z,1.4
2023-05-27T20:03:54.275Z,1.4
2023-05-27T20:10:16.160Z,1.4
2023-05-27T20:16:36.245Z,1.4
2023-05-27T20:33:20.291Z,4
2023-05-27T20:39:40.180Z,4
2023-05-27T20:46:02.134Z,4
2023-05-27T20:52:22.157Z,4
2023-05-27T20:58:44.100Z,0.9
2023-05-27T21:05:03.105Z,0.9
2023-05-27T21:11:24.275Z,2.9
2023-05-27T21:17:44.224Z,2.9
2023-05-27T21:24:06.188Z,1.8
2023-05-27T21:30:26.388Z,1.8
2023-05-27T21:36:48.153Z,2
2023-05-27T21:43:08.304Z,2
2023-05-27T21:49:30.196Z,3.3
2023-05-27T21:55:50.173Z,3.3
2023-05-27T22:02:12.146Z,1.9
2023-05-27T22:25:09.152Z,5.5
2023-05-27T22:31:29.187Z,5.5
2023-05-27T22:37:51.094Z,5.5
2023-05-27T22:44:10.201Z,5.5
2023-05-27T22:50:32.107Z,1.9
2023-05-27T22:56:52.147Z,1.9
2023-05-27T23:03:14.246Z,2.3
2023-05-27T23:09:34.196Z,2.3
2023-05-27T23:15:56.189Z,2.6
2023-05-27T23:22:16.205Z,2.6
2023-05-27T23:28:38.146Z,1.2
2023-05-27T23:34:58.114Z,1.2
2023-05-27T23:41:19.334Z,1.8
2023-05-27T23:47:39.261Z,1.8
2023-05-27T23:54:01.272Z,1.9
